Time;durP1;ratioP1;P1;durP2;ratioP2;P2;SDS_P1;SDS_P2;PMS_P1;PMS_P2;Temp;Humidity;BMP_temperature;BMP_pressure;BME280_temperature;BME280_humidity;BME280_pressure;Samples;Min_cycle;Max_cycle;Signal;HPM_P1;HPM_P2
2023/03/20 00:02:21;;;;;;;0.95;0.95;;;;;;;11.73;42.70;99230.25;4461542;32;34137;-71
2023/03/20 00:04:50;;;;;;;1.00;0.98;;;;;;;11.53;43.09;99227.12;4478497;32;33893;-70
2023/03/20 00:07:18;;;;;;;8.50;1.92;;;;;;;11.65;42.67;99231.28;4462368;32;35914;-71
2023/03/20 00:09:48;;;;;;;1.55;1.45;;;;;;;11.61;42.66;99235.66;4465364;32;35169;-70
2023/03/20 00:12:22;;;;;;;1.55;1.45;;;;;;;11.72;42.64;99228.53;4477882;32;33501;-71
2023/03/20 00:14:50;;;;;;;1.48;1.40;;;;;;;11.84;42.69;99222.25;4463497;32;33863;-72
2023/03/20 00:17:20;;;;;;;0.50;0.50;;;;;;;11.46;42.99;99226.38;4461424;32;35109;-71
2023/03/20 00:19:48;;;;;;;1.67;1.58;;;;;;;11.42;43.16;99226.44;4461566;32;35143;-71
2023/03/20 00:22:16;;;;;;;2.17;1.20;;;;;;;11.36;43.70;99235.22;4475949;32;34484;-72
2023/03/20 00:24:45;;;;;;;0.65;0.65;;;;;;;11.49;43.41;99236.75;4475828;32;34870;-71
2023/03/20 00:27:15;;;;;;;0.62;0.62;;;;;;;11.48;43.48;99228.94;4475765;32;35969;-72
2023/03/20 00:29:43;;;;;;;3.45;2.20;;;;;;;11.45;43.93;99235.06;4474448;32;34391;-71
2023/03/20 00:32:12;;;;;;;1.20;1.12;;;;;;;11.66;42.95;99238.22;4464331;32;33620;-71
2023/03/20 00:34:41;;;;;;;1.08;1.05;;;;;;;11.24;44.12;99232.78;4461933;32;34037;-71
2023/03/20 00:37:10;;;;;;;1.90;1.80;;;;;;;11.66;42.95;99227.78;4474719;32;35003;-70
2023/03/20 00:39:40;;;;;;;1.17;1.15;;;;;;;11.36;43.57;99236.09;4473868;32;34570;-70
2023/03/20 00:42:20;;;;;;;0.65;0.65;;;;;;;11.07;44.62;99233.91;4472964;32;34238;-69
2023/03/20 00:44:53;;;;;;;0.82;0.82;;;;;;;11.14;44.42;99234.69;4458970;32;33986;-70
2023/03/20 00:47:24;;;;;;;1.20;1.15;;;;;;;11.12;44.88;99236.47;4472890;32;35937;-71
2023/03/20 00:49:54;;;;;;;0.88;0.88;;;;;;;10.87;46.02;99226.41;4459119;32;35310;-70
2023/03/20 00:52:23;;;;;;;5.45;2.72;;;;;;;10.58;46.39;99226.75;4472865;32;33439;-70
2023/03/20 00:54:51;;;;;;;1.77;1.67;;;;;;;10.69;45.93;99229.22;4472692;32;34689;-69
2023/03/20 00:57:27;;;;;;;3.58;1.45;;;;;;;10.51;46.20;99228.56;4445232;32;34210;-71
2023/03/20 01:00:13;;;;;;;1.25;1.15;;;;;;;10.53;46.00;99225.97;4466737;32;34622;-70
2023/03/20 01:02:44;;;;;;;2.67;1.02;;;;;;;10.62;45.94;99218.91;4460706;32;33381;-72
2023/03/20 01:05:13;;;;;;;1.37;1.08;;;;;;;9.84;50.11;99223.19;4478771;32;34017;-70
2023/03/20 01:07:41;;;;;;;2.17;1.98;;;;;;;9.91;50.04;99224.00;4477248;32;35058;-70
2023/03/20 01:10:11;;;;;;;1.75;1.52;;;;;;;9.80;51.34;99233.66;4481368;32;34517;-71
2023/03/20 01:12:40;;;;;;;1.37;1.27;;;;;;;9.67;51.17;99236.38;4461771;32;33660;-70
2023/03/20 01:15:24;;;;;;;0.85;0.85;;;;;;;8.93;53.67;99228.25;4463311;32;34791;-70
2023/03/20 01:17:52;;;;;;;1.12;1.02;;;;;;;9.15;53.23;99239.34;4465911;32;35002;-69
2023/03/20 01:20:27;;;;;;;1.02;1.02;;;;;;;8.80;53.55;99232.63;4481102;32;35165;-70
2023/03/20 01:22:55;;;;;;;1.37;1.30;;;;;;;8.85;53.07;99219.62;4458367;32;33478;-70
2023/03/20 01:25:24;;;;;;;1.70;1.60;;;;;;;8.87;52.80;99218.75;4465249;32;33865;-70
2023/03/20 01:27:53;;;;;;;2.10;2.00;;;;;;;8.98;51.83;99218.69;4478875;32;35825;-71
2023/03/20 01:30:27;;;;;;;0.40;0.40;;;;;;;8.69;52.79;99216.25;4460910;32;34132;-71
2023/03/20 01:32:56;;;;;;;2.45;2.25;;;;;;;8.33;55.46;99207.75;4480453;32;33483;-71
2023/03/20 01:35:26;;;;;;;9.40;4.55;;;;;;;8.00;58.50;99212.16;4476698;32;33880;-70
2023/03/20 01:37:55;;;;;;;5.03;2.65;;;;;;;8.46;55.66;99208.59;4459972;32;35087;-70
2023/03/20 01:40:32;;;;;;;1.83;1.70;;;;;;;8.33;58.36;99220.72;4468653;32;34277;-70
2023/03/20 01:43:02;;;;;;;2.83;2.10;;;;;;;8.43;57.63;99212.03;4481639;32;34350;-70
2023/03/20 01:45:34;;;;;;;0.60;0.60;;;;;;;8.32;54.87;99206.00;4459754;32;34763;-69
2023/03/20 01:48:16;;;;;;;1.20;1.15;;;;;;;8.41;55.29;99213.75;4478127;32;33028;-70
2023/03/20 01:50:45;;;;;;;1.27;1.23;;;;;;;8.23;57.33;99214.69;4466932;32;32540;-69
2023/03/20 01:53:20;;;;;;;0.60;0.60;;;;;;;8.74;54.20;99209.31;4483653;32;33512;-71
2023/03/20 01:55:50;;;;;;;2.37;1.83;;;;;;;8.37;58.32;99209.47;4462471;32;33947;-70
2023/03/20 01:58:23;;;;;;;2.05;1.90;;;;;;;8.32;55.77;99211.19;4477893;32;34928;-70
2023/03/20 02:00:52;;;;;;;1.77;1.67;;;;;;;8.13;58.30;99211.25;4465971;32;35192;-69
2023/03/20 02:03:21;;;;;;;2.55;2.35;;;;;;;7.93;57.38;99200.09;4481355;32;33653;-69
2023/03/20 02:05:54;;;;;;;2.28;1.50;;;;;;;8.02;56.21;99201.78;4467751;32;34803;-69
2023/03/20 02:08:27;;;;;;;1.90;1.80;;;;;;;8.29;55.42;99204.28;4469085;32;35079;-69
2023/03/20 02:10:58;;;;;;;3.30;3.05;;;;;;;8.35;55.81;99203.41;4470686;32;34530;-69
2023/03/20 02:13:30;;;;;;;0.85;0.82;;;;;;;8.10;58.96;99198.31;4470833;32;33496;-69
2023/03/20 02:16:11;;;;;;;1.25;1.15;;;;;;;7.81;60.29;99206.16;4456974;32;34739;-71
2023/03/20 02:18:43;;;;;;;2.42;2.22;;;;;;;7.89;60.32;99198.38;4457176;32;36092;-69
2023/03/20 02:21:39;;;;;;;1.95;1.85;;;;;;;7.89;57.51;99200.97;4456857;32;34598;-69
2023/03/20 02:24:32;;;;;;;1.48;1.37;;;;;;;7.63;58.75;99201.88;4470489;32;32634;-69
2023/03/20 02:27:13;;;;;;;0.70;0.70;;;;;;;7.92;56.53;99195.75;4470277;32;33852;-70
2023/03/20 02:30:06;;;;;;;1.50;1.10;;;;;;;7.87;59.20;99194.91;4456630;32;35060;-70
2023/03/20 02:33:13;;;;;;;3.28;3.00;;;;;;;7.54;60.01;99191.50;4470752;32;34538;-69
2023/03/20 02:36:19;;;;;;;5.22;3.20;;;;;;;7.71;57.91;99191.47;4470357;32;33570;-69
2023/03/20 02:39:01;;;;;;;3.33;1.62;;;;;;;7.72;57.92;99186.28;4470389;32;33883;-70
2023/03/20 02:41:33;;;;;;;2.28;2.15;;;;;;;7.52;58.41;99182.88;4456716;32;35049;-71
2023/03/20 02:44:16;;;;;;;1.35;1.25;;;;;;;7.14;61.38;99182.00;4470133;32;34552;-70
2023/03/20 02:46:45;;;;;;;0.98;0.98;;;;;;;7.35;59.42;99175.97;4470601;32;33367;-71
2023/03/20 02:49:38;;;;;;;3.75;2.00;;;;;;;7.05;60.60;99171.66;4470512;32;33989;-70
2023/03/20 02:52:41;;;;;;;1.83;1.73;;;;;;;6.92;59.65;99183.72;4470615;32;35120;-70
2023/03/20 02:55:57;;;;;;;0.98;0.98;;;;;;;6.51;60.57;99174.16;4470141;32;35326;-70
2023/03/20 02:58:32;;;;;;;0.50;0.50;;;;;;;7.18;58.66;99177.69;4459993;32;33609;-70
2023/03/20 03:01:24;;;;;;;2.47;1.27;;;;;;;7.12;59.43;99177.69;4456595;32;33962;-69
2023/03/20 03:03:55;;;;;;;1.42;1.10;;;;;;;6.21;62.46;99183.53;4455371;32;34271;-69
2023/03/20 03:06:26;;;;;;;0.50;0.50;;;;;;;5.94;62.80;99184.22;4443636;32;34570;-69
2023/03/20 03:09:04;;;;;;;0.62;0.62;;;;;;;6.00;61.99;99181.69;4470094;32;33467;-69
2023/03/20 03:11:35;;;;;;;2.15;1.95;;;;;;;5.89;63.30;99191.94;4456163;32;33898;-69
2023/03/20 03:14:05;;;;;;;0.98;0.98;;;;;;;5.57;63.40;99201.22;4456181;32;36137;-70
2023/03/20 03:16:36;;;;;;;1.20;1.15;;;;;;;5.30;65.13;99192.41;4456226;32;35236;-70
2023/03/20 03:19:08;;;;;;;0.60;0.60;;;;;;;5.04;65.22;99199.91;4456629;32;33600;-69
2023/03/20 03:21:38;;;;;;;0.70;0.70;;;;;;;5.92;62.21;99198.00;4456335;32;34040;-69
2023/03/20 03:24:30;;;;;;;1.40;1.12;;;;;;;5.55;63.26;99201.19;4455973;32;35317;-69
2023/03/20 03:27:25;;;;;;;0.60;0.60;;;;;;;5.04;65.01;99211.09;4469704;32;34448;-70
2023/03/20 03:29:58;;;;;;;0.60;0.60;;;;;;;4.53;66.47;99201.97;4455922;32;34287;-69
2023/03/20 03:32:48;;;;;;;0.60;0.60;;;;;;;4.53;66.83;99207.13;4455949;32;33984;-69
2023/03/20 03:35:19;;;;;;;0.70;0.70;;;;;;;4.41;67.29;99196.66;4455792;32;35762;-70
2023/03/20 03:37:59;;;;;;;3.20;2.47;;;;;;;4.43;67.88;99193.28;4455779;32;34565;-70
2023/03/20 03:40:38;;;;;;;0.98;0.98;;;;;;;4.22;69.85;99201.63;4455916;32;34312;-70
2023/03/20 03:43:10;;;;;;;0.60;0.60;;;;;;;5.03;66.96;99199.06;4469573;32;33850;-70
2023/03/20 03:45:56;;;;;;;0.77;0.77;;;;;;;4.63;67.86;99196.06;4456027;32;35042;-69
2023/03/20 03:48:40;;;;;;;0.60;0.60;;;;;;;4.33;67.62;99192.28;4469591;32;34305;-69
2023/03/20 03:51:12;;;;;;;1.17;1.17;;;;;;;4.16;68.29;99206.69;4455562;32;33210;-70
2023/03/20 03:53:47;;;;;;;6.12;2.95;;;;;;;4.02;69.38;99208.22;4455947;32;34030;-70
2023/03/20 03:56:19;;;;;;;0.77;0.77;;;;;;;4.93;66.53;99210.13;4455990;32;35111;-70
2023/03/20 03:58:51;;;;;;;0.62;0.62;;;;;;;5.19;64.57;99206.91;4455526;32;34469;-69
2023/03/20 04:01:21;;;;;;;0.80;0.80;;;;;;;4.45;68.57;99213.94;4455476;32;33416;-69
2023/03/20 04:03:55;;;;;;;0.90;0.90;;;;;;;4.20;69.12;99212.72;4469259;32;33874;-72
2023/03/20 04:06:24;;;;;;;2.65;2.42;;;;;;;4.26;69.61;99210.25;4455332;32;35008;-70
2023/03/20 04:08:53;;;;;;;1.02;1.02;;;;;;;3.90;71.53;99206.31;4469337;32;33619;-69
2023/03/20 04:11:23;;;;;;;0.50;0.50;;;;;;;4.32;69.81;99220.62;4442303;32;32704;-69
2023/03/20 04:13:51;;;;;;;0.70;0.70;;;;;;;4.00;71.85;99218.50;4455189;32;34753;-70
2023/03/20 04:16:22;;;;;;;1.08;0.75;;;;;;;4.32;71.12;99216.34;4456670;32;34304;-69
2023/03/20 04:18:51;;;;;;;1.35;1.27;;;;;;;4.00;71.37;99228.78;4457420;32;34559;-69
2023/03/20 04:21:20;;;;;;;0.70;0.70;;;;;;;3.58;73.23;99223.06;4471565;32;33437;-69
2023/03/20 04:23:48;;;;;;;0.60;0.60;;;;;;;3.68;73.57;99225.75;4471054;32;33913;-70
2023/03/20 04:26:17;;;;;;;1.65;0.98;;;;;;;3.59;74.10;99235.06;4471576;32;35699;-69
2023/03/20 04:28:45;;;;;;;0.70;0.70;;;;;;;3.53;75.07;99229.84;4471053;32;34515;-70
2023/03/20 04:31:14;;;;;;;1.40;1.15;;;;;;;3.66;74.08;99236.03;4457580;32;34120;-73
2023/03/20 04:33:43;;;;;;;0.70;0.70;;;;;;;4.10;71.85;99234.97;4471196;32;33659;-71
2023/03/20 04:36:12;;;;;;;7.30;1.58;;;;;;;3.68;71.88;99228.34;4457248;32;35096;-69
2023/03/20 04:38:40;;;;;;;0.50;0.50;;;;;;;3.98;71.92;99218.47;4444373;32;34419;-69
2023/03/20 04:41:09;;;;;;;0.55;0.55;;;;;;;4.08;71.26;99226.34;4457484;32;34589;-69
2023/03/20 04:43:39;;;;;;;0.75;0.75;;;;;;;3.74;73.24;99234.47;4471293;32;34065;-69
2023/03/20 04:46:07;;;;;;;0.60;0.60;;;;;;;3.65;72.78;99226.56;4457495;32;35073;-69
2023/03/20 04:48:37;;;;;;;0.60;0.60;;;;;;;3.46;73.76;99228.00;4457219;32;35183;-69
2023/03/20 04:51:06;;;;;;;1.67;1.58;;;;;;;3.68;73.66;99223.19;4470979;32;33658;-70
2023/03/20 04:53:37;;;;;;;0.77;0.77;;;;;;;3.65;73.52;99225.72;4471347;32;33729;-70
2023/03/20 04:56:07;;;;;;;1.70;1.58;;;;;;;3.64;74.11;99229.16;4457535;32;36010;-73
2023/03/20 04:58:36;;;;;;;0.80;0.80;;;;;;;3.98;73.16;99223.63;4471079;32;33557;-70
2023/03/20 05:01:05;;;;;;;0.82;0.82;;;;;;;4.61;69.30;99226.13;4471000;32;33617;-70
2023/03/20 05:03:34;;;;;;;0.82;0.82;;;;;;;4.31;68.97;99232.66;4470814;32;34759;-70
2023/03/20 05:06:02;;;;;;;0.62;0.62;;;;;;;4.23;70.37;99234.25;4471245;32;34929;-71
2023/03/20 05:08:31;;;;;;;0.75;0.75;;;;;;;4.36;70.71;99237.88;4471187;32;35326;-71
2023/03/20 05:11:00;;;;;;;1.37;1.33;;;;;;;3.90;72.75;99239.81;4431607;32;32730;-72
2023/03/20 05:13:32;;;;;;;1.00;1.00;;;;;;;3.96;71.66;99235.62;4471181;32;33893;-72
2023/03/20 05:16:01;;;;;;;0.93;0.93;;;;;;;4.17;71.41;99245.34;4470873;32;35132;-70
2023/03/20 05:18:30;;;;;;;2.92;2.25;;;;;;;4.20;71.31;99249.69;4478758;32;35215;-78
2023/03/20 05:21:01;;;;;;;1.90;1.80;;;;;;;4.33;71.35;99250.72;4459410;32;32684;-77
2023/03/20 05:23:31;;;;;;;7.62;2.60;;;;;;;4.42;71.28;99255.97;4486403;32;33669;-76
2023/03/20 05:26:00;;;;;;;1.55;1.45;;;;;;;4.08;73.94;99255.53;4485912;32;34950;-75
2023/03/20 05:28:29;;;;;;;0.88;0.88;;;;;;;4.49;71.87;99262.09;4476280;32;314693;-76
2023/03/20 05:31:00;;;;;;;0.68;0.68;;;;;;;4.34;71.85;99257.59;4486757;32;33716;-77
2023/03/20 05:33:29;;;;;;;0.93;0.85;;;;;;;4.69;71.10;99255.44;4486234;32;33740;-81
2023/03/20 05:35:58;;;;;;;7.43;4.25;;;;;;;4.58;73.02;99254.47;4486500;32;35085;-81
2023/03/20 05:38:27;;;;;;;2.15;1.87;;;;;;;4.94;72.48;99251.44;4486380;32;35205;-82
2023/03/20 05:41:01;;;;;;;0.82;0.82;;;;;;;5.05;72.75;99254.13;4486433;32;34263;-80
2023/03/20 05:43:33;;;;;;;0.60;0.60;;;;;;;5.53;71.67;99256.28;4472402;32;34624;-78
2023/03/20 05:46:02;;;;;;;0.60;0.60;;;;;;;5.45;70.38;99259.66;4486265;32;35148;-75
2023/03/20 05:48:31;;;;;;;0.93;0.93;;;;;;;5.75;68.85;99253.00;4486339;32;34424;-75
2023/03/20 05:51:05;;;;;;;2.28;1.87;;;;;;;5.58;69.94;99264.94;4486319;32;33567;-76
2023/03/20 05:53:33;;;;;;;0.82;0.82;;;;;;;5.96;69.09;99264.38;4486200;32;33638;-77
2023/03/20 05:56:02;;;;;;;1.02;1.02;;;;;;;6.42;67.55;99273.28;4486113;32;35052;-77
2023/03/20 05:58:31;;;;;;;1.42;1.33;;;;;;;7.30;63.25;99270.94;4486159;32;34077;-77
2023/03/20 06:00:59;;;;;;;0.82;0.82;;;;;;;7.36;62.71;99270.97;4486497;32;33342;-78
2023/03/20 06:03:29;;;;;;;0.73;0.73;;;;;;;7.82;61.26;99279.59;4485906;32;35250;-78
2023/03/20 06:05:59;;;;;;;0.80;0.77;;;;;;;8.06;62.20;99269.19;4486236;32;35118;-75
2023/03/20 06:08:29;;;;;;;1.70;1.60;;;;;;;8.22;62.94;99279.53;4485924;32;35216;-74
2023/03/20 06:10:58;;;;;;;1.62;1.55;;;;;;;8.71;62.17;99282.00;4485244;32;34199;-77
2023/03/20 06:13:26;;;;;;;1.12;1.08;;;;;;;8.18;64.31;99283.87;4485806;32;33908;-77
2023/03/20 06:15:55;;;;;;;1.00;1.00;;;;;;;8.55;62.42;99286.41;4484855;32;35079;-77
2023/03/20 06:18:24;;;;;;;0.95;0.95;;;;;;;8.51;62.55;99293.34;4484588;32;34590;-77
2023/03/20 06:20:54;;;;;;;1.37;0.88;;;;;;;9.11;57.08;99284.44;4484854;32;32797;-73
2023/03/20 06:23:23;;;;;;;0.88;0.88;;;;;;;9.63;57.32;99281.44;4484734;32;34028;-78
2023/03/20 06:25:53;;;;;;;1.40;1.30;;;;;;;10.16;59.87;99294.84;4484567;32;35166;-73
2023/03/20 06:28:21;;;;;;;1.00;1.00;;;;;;;11.06;55.19;99279.09;4485856;32;34637;-77
2023/03/20 06:30:53;;;;;;;1.00;0.98;;;;;;;11.71;48.60;99283.34;4486199;32;34275;-79
2023/03/20 06:33:25;;;;;;;2.47;2.35;;;;;;;12.43;47.25;99289.06;4486020;32;33944;-79
2023/03/20 06:35:54;;;;;;;0.85;0.85;;;;;;;12.96;47.74;99289.75;4484951;32;33388;-79
2023/03/20 06:38:24;;;;;;;1.67;1.58;;;;;;;13.15;46.50;99289.34;4484740;32;36367;-79
2023/03/20 06:40:53;;;;;;;1.20;1.17;;;;;;;12.91;44.84;99286.34;4484875;32;33422;-78
2023/03/20 06:43:22;;;;;;;2.17;1.98;;;;;;;12.72;47.00;99291.09;4471847;32;33190;-78
2023/03/20 06:45:51;;;;;;;0.80;0.80;;;;;;;12.56;46.89;99289.69;4472436;32;34890;-80
2023/03/20 06:48:20;;;;;;;0.35;0.35;;;;;;;13.02;46.30;99283.50;4484561;32;33892;-78
2023/03/20 06:50:50;;;;;;;0.95;0.95;;;;;;;12.75;47.44;99288.44;4485994;32;34148;-78
2023/03/20 06:53:19;;;;;;;0.68;0.68;;;;;;;13.24;47.31;99286.53;4458943;32;33159;-78
2023/03/20 06:55:50;;;;;;;4.32;2.37;;;;;;;14.07;43.36;99295.03;4484881;32;35095;-78
2023/03/20 06:58:19;;;;;;;1.23;1.15;;;;;;;13.69;44.41;99296.81;4485799;32;35366;-78
2023/03/20 07:00:49;;;;;;;2.42;1.42;;;;;;;14.50;43.89;99299.09;4472190;32;33460;-80
2023/03/20 07:03:17;;;;;;;1.73;1.50;;;;;;;14.62;40.79;99295.34;4483879;32;33366;-79
2023/03/20 07:05:49;;;;;;;1.12;1.12;;;;;;;15.05;42.24;99288.84;4471742;32;34545;-78
2023/03/20 07:08:19;;;;;;;2.92;2.45;;;;;;;14.49;42.22;99297.41;4484390;32;34444;-76
2023/03/20 07:10:49;;;;;;;2.53;2.33;;;;;;;14.73;42.67;99295.03;4485532;32;34537;-80
2023/03/20 07:13:17;;;;;;;3.22;2.00;;;;;;;14.65;42.50;99304.84;4471124;32;33874;-79
2023/03/20 07:15:46;;;;;;;3.00;2.08;;;;;;;15.34;41.52;99306.31;4484364;32;35993;-79
2023/03/20 07:18:31;;;;;;;1.40;1.15;;;;;;;14.92;39.99;99303.22;4484444;32;35281;-78
2023/03/20 07:21:01;;;;;;;0.60;0.60;;;;;;;15.56;39.98;99310.91;4484568;32;34207;-77
2023/03/20 07:23:33;;;;;;;9.57;3.30;;;;;;;15.19;38.29;99304.16;4484311;32;34106;-78
2023/03/20 07:26:02;;;;;;;0.47;0.47;;;;;;;15.35;38.05;99300.19;4484439;32;34998;-78
2023/03/20 07:28:31;;;;;;;0.70;0.70;;;;;;;15.44;38.91;99299.03;4483493;32;34786;-78
2023/03/20 07:31:00;;;;;;;1.73;1.62;;;;;;;15.84;36.54;99303.03;4484343;32;33469;-79
2023/03/20 07:33:29;;;;;;;3.25;1.15;;;;;;;15.31;36.28;99303.78;4484306;32;33594;-77
2023/03/20 07:35:58;;;;;;;1.27;1.20;;;;;;;16.10;36.39;99301.31;4484168;32;34420;-80
2023/03/20 07:38:27;;;;;;;0.60;0.60;;;;;;;16.96;32.62;99297.38;4485286;32;35215;-78
2023/03/20 07:40:57;;;;;;;1.23;1.12;;;;;;;17.69;32.31;99292.81;4471412;32;32943;-80
2023/03/20 07:43:26;;;;;;;0.70;0.70;;;;;;;17.33;34.03;99295.97;4484883;32;33944;-76
2023/03/20 07:46:03;;;;;;;2.12;1.60;;;;;;;17.36;33.37;99299.34;4484898;32;34950;-79
2023/03/20 07:48:35;;;;;;;6.03;2.65;;;;;;;16.78;34.58;99304.16;4458857;32;34494;-76
2023/03/20 07:51:06;;;;;;;2.28;1.62;;;;;;;17.81;32.07;99305.47;4471259;32;34065;-76
2023/03/20 07:53:34;;;;;;;0.93;0.73;;;;;;;17.83;31.69;99305.41;4457651;32;34584;-79
2023/03/20 07:56:04;;;;;;;0.55;0.55;;;;;;;16.98;35.01;99311.38;4470953;32;35076;-77
2023/03/20 07:58:32;;;;;;;0.95;0.93;;;;;;;18.20;31.32;99310.03;4455788;32;33739;-78
2023/03/20 08:01:02;;;;;;;1.00;0.82;;;;;;;17.66;33.34;99312.22;4457877;32;33591;-78
2023/03/20 08:03:34;;;;;;;1.45;1.20;;;;;;;18.18;31.18;99307.47;4456256;32;33906;-79
2023/03/20 08:06:05;;;;;;;1.37;1.27;;;;;;;18.73;32.67;99312.09;4457275;32;35109;-78
2023/03/20 08:08:34;;;;;;;2.58;1.20;;;;;;;18.45;33.32;99309.81;4457242;32;32977;-78
2023/03/20 08:11:02;;;;;;;1.37;0.73;;;;;;;18.32;34.30;99320.06;4444708;32;33389;-80
2023/03/20 08:13:31;;;;;;;0.30;0.30;;;;;;;19.48;31.21;99317.50;4471241;32;33889;-82
2023/03/20 08:16:01;;;;;;;1.42;1.33;;;;;;;19.54;31.39;99314.59;4471533;32;34521;-77
2023/03/20 08:18:29;;;;;;;1.05;0.95;;;;;;;19.35;32.61;99317.22;4457305;32;34424;-77
2023/03/20 08:20:57;;;;;;;5.95;2.83;;;;;;;20.03;32.35;99316.63;4457196;32;33592;-72
2023/03/20 08:23:27;;;;;;;1.00;0.95;;;;;;;19.21;32.30;99311.75;4471317;32;33937;-77
2023/03/20 08:25:56;;;;;;;2.58;1.10;;;;;;;19.42;32.83;99308.09;4471165;32;35532;-75
2023/03/20 08:28:24;;;;;;;1.83;1.55;;;;;;;19.77;33.86;99312.66;4443070;32;34453;-75
2023/03/20 08:31:13;;;;;;;2.47;2.10;;;;;;;19.55;33.27;99321.56;4454686;32;34223;-73
2023/03/20 08:33:45;;;;;;;1.23;0.80;;;;;;;19.54;32.65;99326.94;4454230;32;32300;-72
2023/03/20 08:36:14;;;;;;;1.85;1.75;;;;;;;19.19;33.61;99324.16;4454428;32;35101;-78
2023/03/20 08:38:43;;;;;;;2.10;1.40;;;;;;;19.02;33.04;99330.22;4440946;32;35299;-78
2023/03/20 08:41:11;;;;;;;1.37;1.27;;;;;;;19.33;34.00;99324.38;4454515;32;33391;-76
2023/03/20 08:43:40;;;;;;;1.20;1.10;;;;;;;19.70;33.77;99327.91;4469733;32;33997;-72
2023/03/20 08:46:08;;;;;;;2.45;2.33;;;;;;;19.71;31.37;99332.25;4455819;32;33232;-73
2023/03/20 08:48:36;;;;;;;0.40;0.40;;;;;;;19.33;32.69;99330.50;4468672;32;34380;-79
2023/03/20 08:51:06;;;;;;;1.55;1.33;;;;;;;19.33;33.55;99337.56;4470012;32;34475;-79
2023/03/20 08:53:34;;;;;;;0.60;0.60;;;;;;;19.05;34.10;99336.22;4456108;32;33811;-78
2023/03/20 08:56:03;;;;;;;7.30;3.10;;;;;;;18.45;35.13;99332.72;4455911;32;33789;-76
2023/03/20 08:58:36;;;;;;;1.52;1.35;;;;;;;18.72;35.46;99339.41;4463793;32;34062;-78
2023/03/20 09:01:09;;;;;;;0.73;0.73;;;;;;;19.06;35.06;99342.34;4445712;32;33292;-76
2023/03/20 09:03:47;;;;;;;1.98;1.85;;;;;;;19.44;33.28;99347.63;4454541;32;33919;-76
2023/03/20 09:06:20;;;;;;;1.67;1.35;;;;;;;19.50;33.95;99347.31;4456402;32;35004;-76
2023/03/20 09:08:49;;;;;;;1.55;1.27;;;;;;;20.02;33.44;99352.78;4469732;32;35152;-75
2023/03/20 09:11:20;;;;;;;0.77;0.77;;;;;;;19.54;33.85;99342.78;4468336;32;34237;-75
2023/03/20 09:13:50;;;;;;;14.38;2.17;;;;;;;19.28;33.10;99342.22;4469758;32;33942;-74
2023/03/20 09:16:18;;;;;;;1.90;1.45;;;;;;;19.11;32.97;99349.12;4462521;32;35748;-75
2023/03/20 09:18:47;;;;;;;0.60;0.60;;;;;;;19.30;33.54;99350.91;4450612;32;35294;-76
2023/03/20 09:21:15;;;;;;;3.25;1.95;;;;;;;18.97;34.40;99354.19;4455535;32;33356;-74
2023/03/20 09:23:44;;;;;;;1.73;1.62;;;;;;;18.83;34.91;99351.28;4442173;32;34448;-75
2023/03/20 09:26:12;;;;;;;1.33;1.23;;;;;;;19.27;33.31;99346.66;4456132;32;34969;-76
2023/03/20 09:28:41;;;;;;;1.00;0.88;;;;;;;19.80;32.24;99345.06;4469948;32;34106;-76
2023/03/20 09:31:10;;;;;;;0.85;0.75;;;;;;;19.33;32.22;99343.72;4471697;32;33604;-75
2023/03/20 09:33:39;;;;;;;0.70;0.70;;;;;;;19.00;33.53;99340.84;4471576;32;34401;-76
2023/03/20 09:36:10;;;;;;;2.30;1.87;;;;;;;19.75;32.57;99340.91;4441558;32;35381;-77
2023/03/20 09:38:40;;;;;;;1.55;0.98;;;;;;;20.14;32.14;99337.25;4463479;32;34940;-74
2023/03/20 09:41:23;;;;;;;1.83;1.12;;;;;;;20.40;33.16;99338.56;4473588;32;34436;-73
2023/03/20 09:43:57;;;;;;;26.75;2.20;;;;;;;20.17;31.09;99337.94;4455914;32;33359;-74
2023/03/20 09:46:54;;;;;;;4.28;2.95;;;;;;;19.91;31.88;99341.88;4459210;32;34274;-76
2023/03/20 09:49:54;;;;;;;0.65;0.65;;;;;;;20.46;30.73;99339.09;4473317;32;34440;-71
2023/03/20 09:52:52;;;;;;;1.10;1.05;;;;;;;20.15;30.89;99342.44;4474029;32;33294;-75
2023/03/20 09:55:25;;;;;;;0.82;0.82;;;;;;;20.08;31.55;99339.25;4461854;32;34854;-73
2023/03/20 09:57:58;;;;;;;1.55;1.27;;;;;;;20.65;30.42;99346.13;4463863;32;36021;-71
2023/03/20 10:00:31;;;;;;;0.43;0.43;;;;;;;20.46;30.19;99347.03;4471216;32;34430;-74
2023/03/20 10:03:06;;;;;;;2.15;1.58;;;;;;;20.10;31.12;99351.53;4471097;32;32702;-71
2023/03/20 10:05:58;;;;;;;0.90;0.85;;;;;;;20.56;30.77;99339.50;4472044;32;33769;-71
2023/03/20 10:08:33;;;;;;;2.78;0.93;;;;;;;20.45;30.20;99344.47;4485286;32;35844;-71
2023/03/20 10:11:35;;;;;;;0.98;0.95;;;;;;;20.21;31.23;99342.16;4472314;32;34507;-72
2023/03/20 10:14:32;;;;;;;1.65;1.30;;;;;;;20.36;31.03;99337.00;4486251;32;33425;-72
2023/03/20 10:17:04;;;;;;;1.73;1.62;;;;;;;20.34;30.71;99344.16;4472124;32;33787;-76
2023/03/20 10:19:44;;;;;;;0.45;0.45;;;;;;;20.24;31.13;99339.34;4486054;32;35081;-71
2023/03/20 10:22:25;;;;;;;1.75;1.65;;;;;;;20.48;30.64;99344.31;4471973;32;33675;-72
2023/03/20 10:25:20;;;;;;;3.87;2.35;;;;;;;20.79;30.60;99338.31;4472471;32;33421;-78
2023/03/20 10:28:11;;;;;;;3.12;1.87;;;;;;;20.98;30.26;99339.97;4485724;32;33998;-77
2023/03/20 10:30:46;;;;;;;2.12;1.92;;;;;;;20.53;30.23;99338.78;4486063;32;35952;-73
2023/03/20 10:33:38;;;;;;;3.40;1.83;;;;;;;21.14;30.15;99334.69;4486082;32;34603;-72
2023/03/20 10:36:18;;;;;;;1.85;1.25;;;;;;;21.32;30.60;99331.06;4486124;32;33496;-73
2023/03/20 10:39:10;;;;;;;1.40;1.30;;;;;;;21.50;30.53;99325.72;4485918;32;34613;-72
2023/03/20 10:41:41;;;;;;;1.80;1.65;;;;;;;21.26;29.53;99328.72;4472064;32;35854;-78
2023/03/20 10:44:18;;;;;;;4.87;2.08;;;;;;;20.87;29.39;99329.09;4472300;32;35120;-78
2023/03/20 10:46:50;;;;;;;1.48;1.37;;;;;;;20.90;30.22;99323.66;4471836;32;34222;-74
2023/03/20 10:49:36;;;;;;;0.80;0.75;;;;;;;20.56;30.42;99323.63;4472243;32;34740;-78
2023/03/20 10:52:17;;;;;;;5.22;2.37;;;;;;;20.60;30.42;99327.81;4471327;32;35919;-77
2023/03/20 10:54:59;;;;;;;3.30;1.33;;;;;;;20.60;30.69;99326.97;4471871;32;34471;-77
2023/03/20 10:57:31;;;;;;;2.80;2.22;;;;;;;20.35;30.40;99330.03;4471902;32;34293;-72
2023/03/20 11:00:01;;;;;;;0.90;0.88;;;;;;;21.19;29.94;99322.06;4459433;32;34059;-72
2023/03/20 11:02:31;;;;;;;4.68;2.67;;;;;;;20.73;30.07;99319.25;4458725;32;35249;-78
2023/03/20 11:05:00;;;;;;;1.02;0.95;;;;;;;20.90;30.06;99311.28;4471849;32;34425;-78
2023/03/20 11:07:34;;;;;;;0.57;0.57;;;;;;;21.58;29.02;99318.16;4471699;32;35054;-79
2023/03/20 11:10:03;;;;;;;1.23;1.12;;;;;;;21.11;29.27;99309.25;4471813;32;33863;-78
2023/03/20 11:12:36;;;;;;;3.80;1.12;;;;;;;20.92;30.56;99309.38;4485660;32;35996;-78
2023/03/20 11:15:26;;;;;;;3.08;2.20;;;;;;;21.22;30.04;99311.31;4471782;32;34341;-78
2023/03/20 11:17:59;;;;;;;2.75;2.53;;;;;;;20.66;30.73;99309.94;4471223;32;33286;-78
2023/03/20 11:20:33;;;;;;;2.47;1.05;;;;;;;20.35;30.66;99308.88;4485554;32;34807;-74
2023/03/20 11:23:05;;;;;;;1.52;0.82;;;;;;;20.14;31.65;99310.81;4471654;32;36004;-78
2023/03/20 11:25:39;;;;;;;2.03;1.10;;;;;;;20.65;30.64;99303.78;4471054;32;35194;-74
2023/03/20 11:28:41;;;;;;;1.70;1.45;;;;;;;20.51;31.10;99299.19;4468531;32;33616;-78
2023/03/20 11:31:12;;;;;;;2.17;1.60;;;;;;;20.24;31.46;99298.81;4460211;32;33801;-78
2023/03/20 11:34:13;;;;;;;1.17;1.08;;;;;;;20.36;31.70;99292.03;4469743;32;35855;-73
2023/03/20 11:36:52;;;;;;;2.50;1.75;;;;;;;20.49;31.38;99294.91;4464852;32;33027;-78
2023/03/20 11:39:38;;;;;;;1.77;1.67;;;;;;;20.36;31.44;99292.03;4468754;32;33523;-74
2023/03/20 11:42:23;;;;;;;2.05;1.83;;;;;;;19.89;31.48;99296.19;4468476;32;33938;-74
2023/03/20 11:45:12;;;;;;;1.17;0.73;;;;;;;19.55;31.95;99297.78;4469676;32;34860;-77
2023/03/20 11:47:47;;;;;;;2.85;2.30;;;;;;;19.78;31.37;99287.91;4468216;32;34427;-78
2023/03/20 11:50:34;;;;;;;0.98;0.95;;;;;;;19.71;32.39;99292.59;4455899;32;34463;-74
2023/03/20 11:53:20;;;;;;;0.52;0.52;;;;;;;19.83;31.75;99289.41;4468367;32;33764;-77
2023/03/20 11:56:02;;;;;;;2.08;1.92;;;;;;;19.51;31.31;99297.09;4469464;32;36025;-78
2023/03/20 11:58:31;;;;;;;0.35;0.35;;;;;;;19.27;34.65;99293.84;4468335;32;34490;-77
2023/03/20 12:01:00;;;;;;;0.98;0.95;;;;;;;19.60;32.22;99284.37;4469380;32;34309;-76
2023/03/20 12:03:55;;;;;;;1.95;1.27;;;;;;;20.03;31.37;99292.81;4468106;32;34734;-78
2023/03/20 12:06:36;;;;;;;2.58;1.12;;;;;;;19.61;32.24;99291.38;4468033;32;35977;-76
2023/03/20 12:09:11;;;;;;;1.52;1.42;;;;;;;19.64;31.95;99293.84;4469268;32;35279;-77